Terminal Aerodrome Forecast
Issued by NWS Newport/Morehead City, NC

Home | Current Version | Previous Version | Text Only | Print | Product List | Glossary On
Versions: 1 2 3 4 5 6 7 8 9 10 11 12 13 14 15 16 17 18 19 20 21 22
000
FTUS42 KMHX 021246 AAA
TAFEWN
TAF AMD
KEWN 021246Z 0213/0312 23010KT P6SM SCT009 BKN020
      TEMPO 0213/0214 BKN009
     FM021400 22010KT P6SM BKN040
     FM021900 22011G18KT P6SM VCTS BKN040CB
     FM022300 20010KT P6SM BKN040
     FM030800 20008KT 6SM -SHRA SCT025 OVC040=

USA.gov is the U.S. government's official web portal to all federal, state and local government web resources and services.